createdAt,value
2016-05-09T00:00:35.825Z,961.43
2016-05-09T00:01:35.812Z,961.41
2016-05-09T00:02:35.816Z,961.42
2016-05-09T00:03:35.818Z,961.44
2016-05-09T00:04:35.821Z,961.43
2016-05-09T00:05:35.823Z,961.48
2016-05-09T00:06:35.826Z,961.41
2016-05-09T00:07:35.829Z,961.38
2016-05-09T00:08:35.832Z,961.36
2016-05-09T00:09:35.834Z,961.33
2016-05-09T00:10:35.821Z,961.31
2016-05-09T00:11:35.823Z,961.29
2016-05-09T00:12:35.826Z,961.31
2016-05-09T00:13:36.126Z,961.28
2016-05-09T00:14:35.832Z,961.33
2016-05-09T00:15:35.834Z,961.33
2016-05-09T00:16:35.837Z,961.37
2016-05-09T00:17:35.839Z,961.33
2016-05-09T00:18:35.842Z,961.29
2016-05-09T00:19:35.845Z,961.25
2016-05-09T00:20:35.833Z,961.25
2016-05-09T00:21:35.836Z,961.27
2016-05-09T00:22:35.853Z,961.26
2016-05-09T00:23:35.841Z,961.24
2016-05-09T00:24:35.843Z,961.25
2016-05-09T00:25:35.846Z,961.19
2016-05-09T00:26:35.848Z,961.12
2016-05-09T00:27:35.852Z,961.15
2016-05-09T00:28:35.854Z,961.22
2016-05-09T00:29:35.857Z,961.16
2016-05-09T00:30:35.844Z,961.16
2016-05-09T00:31:35.846Z,961.14
2016-05-09T00:32:35.865Z,961.13
2016-05-09T00:33:35.852Z,961.06
2016-05-09T00:34:35.854Z,961.15
2016-05-09T00:35:35.857Z,961.08
2016-05-09T00:36:35.860Z,961.09
2016-05-09T00:37:35.862Z,961.06
2016-05-09T00:38:35.865Z,961.08
2016-05-09T00:39:35.868Z,961.05
2016-05-09T00:40:35.856Z,961.03
2016-05-09T00:41:35.858Z,961.07
2016-05-09T00:42:35.861Z,961.04
2016-05-09T00:43:35.864Z,961.07
2016-05-09T00:44:35.867Z,961.08
2016-05-09T00:45:35.868Z,961.06
2016-05-09T00:46:35.872Z,961.14
2016-05-09T00:47:35.874Z,961.11
2016-05-09T00:48:35.877Z,961.11
2016-05-09T00:49:35.879Z,961.13
2016-05-09T00:50:35.867Z,961.1
2016-05-09T00:51:35.869Z,961.11
2016-05-09T00:52:35.872Z,961.11
2016-05-09T00:53:35.874Z,961.13
2016-05-09T00:54:35.877Z,961.07
2016-05-09T00:55:35.880Z,961.13
2016-05-09T00:56:35.882Z,961.16
2016-05-09T00:57:35.885Z,961.15
2016-05-09T00:58:35.872Z,961.11
2016-05-09T00:59:35.875Z,961.11
2016-05-09T01:00:35.877Z,961.08
2016-05-09T01:01:35.880Z,961.14
2016-05-09T01:02:35.883Z,961.1
2016-05-09T01:03:35.885Z,961.11
2016-05-09T01:04:35.888Z,961.09
2016-05-09T01:05:35.891Z,961.06
2016-05-09T01:06:35.878Z,961.1
2016-05-09T01:07:35.881Z,961.13
2016-05-09T01:08:35.883Z,961.11
2016-05-09T01:09:35.887Z,961.1
2016-05-09T01:10:35.890Z,961.12
2016-05-09T01:11:35.892Z,961.14
2016-05-09T01:12:35.894Z,961.1
2016-05-09T01:13:35.897Z,961.17
2016-05-09T01:14:35.899Z,961.12
2016-05-09T01:15:35.903Z,961.11
2016-05-09T01:16:35.906Z,961.13
2016-05-09T01:17:35.892Z,961.11
2016-05-09T01:18:35.895Z,961.14
2016-05-09T01:19:35.897Z,961.15
2016-05-09T01:20:35.900Z,961.15
2016-05-09T01:21:35.902Z,961.11
2016-05-09T01:22:35.906Z,961.12
2016-05-09T01:23:35.892Z,961.14
2016-05-09T01:24:35.895Z,961.14
2016-05-09T01:25:35.897Z,961.11
2016-05-09T01:26:35.900Z,961.14
2016-05-09T01:27:35.903Z,961.1
2016-05-09T01:28:35.906Z,961.18
2016-05-09T01:29:35.908Z,961.14
2016-05-09T01:30:35.911Z,961.11
2016-05-09T01:31:35.913Z,961.14
2016-05-09T01:32:35.916Z,961.08
2016-05-09T01:33:35.919Z,961.17
2016-05-09T01:34:35.922Z,961.18
2016-05-09T01:35:35.924Z,961.15
2016-05-09T01:36:35.912Z,961.16
2016-05-09T01:37:35.914Z,961.2
2016-05-09T01:38:35.918Z,961.16
2016-05-09T01:39:35.921Z,961.22
2016-05-09T01:40:35.923Z,961.21
2016-05-09T01:41:35.926Z,961.22
2016-05-09T01:42:35.928Z,961.19
2016-05-09T01:43:35.914Z,961.19
2016-05-09T01:44:35.918Z,961.2
2016-05-09T01:45:35.920Z,961.23
2016-05-09T01:46:35.923Z,961.22
2016-05-09T01:47:35.926Z,961.21
2016-05-09T01:48:35.928Z,961.2
2016-05-09T01:49:35.931Z,961.22
2016-05-09T01:50:35.933Z,961.22
2016-05-09T01:51:35.922Z,961.23
2016-05-09T01:52:35.924Z,961.23
2016-05-09T01:53:35.927Z,961.27
2016-05-09T01:54:35.929Z,961.23
2016-05-09T01:55:35.932Z,961.21
2016-05-09T01:56:35.935Z,961.23
2016-05-09T01:57:35.938Z,961.25
2016-05-09T01:58:35.940Z,961.26
2016-05-09T01:59:35.927Z,961.27
2016-05-09T02:00:35.945Z,961.28
2016-05-09T02:01:35.932Z,961.26
2016-05-09T02:02:35.935Z,961.26
2016-05-09T02:03:35.938Z,961.27
2016-05-09T02:04:35.941Z,961.28
2016-05-09T02:05:35.943Z,961.3
2016-05-09T02:06:35.945Z,961.29
2016-05-09T02:07:35.964Z,961.27
2016-05-09T02:08:35.936Z,961.27
2016-05-09T02:09:35.938Z,961.25
2016-05-09T02:10:35.941Z,961.28
2016-05-09T02:11:35.943Z,961.28
2016-05-09T02:12:35.946Z,961.28
2016-05-09T02:13:35.948Z,961.28
2016-05-09T02:14:35.952Z,961.31
2016-05-09T02:15:35.970Z,961.29
2016-05-09T02:16:35.942Z,961.28
2016-05-09T02:17:35.944Z,961.27
2016-05-09T02:18:35.947Z,961.28
2016-05-09T02:19:35.949Z,961.29
2016-05-09T02:20:35.952Z,961.31
2016-05-09T02:21:35.955Z,961.27
2016-05-09T02:22:35.958Z,961.31
2016-05-09T02:23:35.951Z,961.28
2016-05-09T02:24:35.954Z,961.29
2016-05-09T02:25:35.956Z,961.28
2016-05-09T02:26:35.960Z,961.26
2016-05-09T02:27:35.978Z,961.32
2016-05-09T02:28:35.965Z,961.3
2016-05-09T02:29:35.951Z,961.32
2016-05-09T02:30:35.954Z,961.29
2016-05-09T02:31:35.957Z,961.32
2016-05-09T02:32:35.960Z,961.34
2016-05-09T02:33:35.963Z,961.31
2016-05-09T02:34:35.965Z,961.35
2016-05-09T02:35:35.968Z,961.33
2016-05-09T02:36:35.970Z,961.33
2016-05-09T02:37:35.973Z,961.31
2016-05-09T02:38:35.961Z,961.34
2016-05-09T02:39:35.964Z,961.32
2016-05-09T02:40:35.966Z,961.33
2016-05-09T02:41:35.969Z,961.38
2016-05-09T02:42:35.972Z,961.39
2016-05-09T02:43:35.974Z,961.41
2016-05-09T02:44:35.977Z,961.36
2016-05-09T02:45:35.964Z,961.45
2016-05-09T02:46:35.966Z,961.4
2016-05-09T02:47:35.969Z,961.41
2016-05-09T02:48:35.972Z,961.42
2016-05-09T02:49:35.975Z,961.44
2016-05-09T02:50:35.977Z,961.42
2016-05-09T02:51:35.980Z,961.41
2016-05-09T02:52:35.982Z,961.42
2016-05-09T02:53:35.969Z,961.39
2016-05-09T02:54:35.971Z,961.39
2016-05-09T02:55:35.991Z,961.42
2016-05-09T02:56:35.977Z,961.43
2016-05-09T02:57:35.980Z,961.43
2016-05-09T02:58:35.982Z,961.44
2016-05-09T02:59:35.986Z,961.41
2016-05-09T03:00:35.973Z,961.43
2016-05-09T03:01:35.991Z,961.44
2016-05-09T03:02:35.978Z,961.44
2016-05-09T03:03:35.981Z,961.43
2016-05-09T03:04:35.983Z,961.4
2016-05-09T03:05:35.986Z,961.4
2016-05-09T03:06:35.989Z,961.42
2016-05-09T03:07:35.992Z,961.42
2016-05-09T03:08:35.994Z,961.41
2016-05-09T03:09:35.998Z,961.41
2016-05-09T03:10:35.984Z,961.42
2016-05-09T03:11:35.986Z,961.44
2016-05-09T03:12:35.989Z,961.43
2016-05-09T03:13:35.992Z,961.41
2016-05-09T03:14:35.995Z,961.42
2016-05-09T03:15:35.997Z,961.41
2016-05-09T03:16:36.000Z,961.39
2016-05-09T03:17:36.003Z,961.42
2016-05-09T03:18:36.005Z,961.42
2016-05-09T03:19:35.992Z,961.43
2016-05-09T03:20:35.995Z,961.43
2016-05-09T03:21:35.998Z,961.43
2016-05-09T03:22:36.000Z,961.45
2016-05-09T03:23:36.003Z,961.47
2016-05-09T03:24:35.990Z,961.45
2016-05-09T03:25:35.993Z,961.5
2016-05-09T03:26:35.996Z,961.51
2016-05-09T03:27:35.999Z,961.57
2016-05-09T03:28:36.002Z,961.53
2016-05-09T03:29:36.004Z,961.58
2016-05-09T03:30:36.007Z,961.54
2016-05-09T03:31:36.009Z,961.55
2016-05-09T03:32:35.996Z,961.56
2016-05-09T03:33:36.014Z,961.57
2016-05-09T03:34:36.002Z,961.56
2016-05-09T03:35:36.004Z,961.59
2016-05-09T03:36:36.007Z,961.6
2016-05-09T03:37:36.009Z,961.63
2016-05-09T03:38:36.013Z,961.62
2016-05-09T03:39:36.015Z,961.63
2016-05-09T03:40:36.018Z,961.65
2016-05-09T03:41:36.005Z,961.61
2016-05-09T03:42:36.008Z,961.66
2016-05-09T03:43:36.010Z,961.62
2016-05-09T03:44:36.014Z,961.61
2016-05-09T03:45:36.016Z,961.66
2016-05-09T03:46:36.019Z,961.65
2016-05-09T03:47:36.005Z,961.69
2016-05-09T03:48:36.024Z,961.67
2016-05-09T03:49:36.027Z,961.73
2016-05-09T03:50:36.013Z,961.7
2016-05-09T03:51:36.016Z,961.7
2016-05-09T03:52:36.019Z,961.74
2016-05-09T03:53:36.021Z,961.75
2016-05-09T03:54:36.024Z,961.71
2016-05-09T03:55:36.027Z,961.7
2016-05-09T03:56:36.014Z,961.68
2016-05-09T03:57:36.016Z,961.68
2016-05-09T03:58:36.019Z,961.68
2016-05-09T03:59:36.021Z,961.69
2016-05-09T04:00:36.025Z,961.7
2016-05-09T04:01:36.027Z,961.71
2016-05-09T04:02:36.030Z,961.74
2016-05-09T04:03:36.017Z,961.72
2016-05-09T04:04:36.020Z,961.74
2016-05-09T04:05:36.022Z,961.76
2016-05-09T04:06:36.026Z,961.75
2016-05-09T04:07:36.028Z,961.73
2016-05-09T04:08:36.015Z,961.7
2016-05-09T04:09:36.017Z,961.71
2016-05-09T04:10:36.020Z,961.76
2016-05-09T04:11:36.022Z,961.79
2016-05-09T04:12:36.026Z,961.77
2016-05-09T04:13:36.029Z,961.78
2016-05-09T04:14:36.031Z,961.85
2016-05-09T04:15:36.033Z,961.83
2016-05-09T04:16:36.036Z,961.86
2016-05-09T04:17:36.039Z,961.86
2016-05-09T04:18:36.026Z,961.89
2016-05-09T04:19:36.029Z,961.91
2016-05-09T04:20:36.031Z,961.88
2016-05-09T04:21:36.033Z,961.97
2016-05-09T04:22:36.036Z,961.93
2016-05-09T04:23:36.039Z,961.93
2016-05-09T04:24:36.042Z,961.96
2016-05-09T04:25:36.030Z,961.96
2016-05-09T04:26:36.032Z,962
2016-05-09T04:27:36.035Z,961.96
2016-05-09T04:28:36.038Z,961.94
2016-05-09T04:29:36.040Z,961.98
2016-05-09T04:30:36.043Z,961.99
2016-05-09T04:31:36.046Z,961.95
2016-05-09T04:32:36.048Z,961.95
2016-05-09T04:33:36.051Z,961.96
2016-05-09T04:34:36.054Z,961.97
2016-05-09T04:35:36.040Z,961.99
2016-05-09T04:36:36.043Z,962
2016-05-09T04:37:36.046Z,962
2016-05-09T04:38:36.049Z,962.02
2016-05-09T04:39:36.051Z,962.07
2016-05-09T04:40:36.054Z,962.05
2016-05-09T04:41:36.056Z,962.11
2016-05-09T04:42:36.059Z,962.09
2016-05-09T04:43:36.062Z,962.14
2016-05-09T04:44:36.065Z,962.15
2016-05-09T04:45:36.068Z,962.15
2016-05-09T04:46:36.070Z,962.15
2016-05-09T04:47:36.057Z,962.13
2016-05-09T04:48:36.075Z,962.16
2016-05-09T04:49:36.064Z,962.16
2016-05-09T04:50:36.065Z,962.24
2016-05-09T04:51:36.069Z,962.28
2016-05-09T04:52:36.071Z,962.22
2016-05-09T04:53:36.074Z,962.21
2016-05-09T04:54:36.076Z,962.24
2016-05-09T04:55:36.080Z,962.23
2016-05-09T04:56:36.082Z,962.26
2016-05-09T04:57:36.085Z,962.27
2016-05-09T04:58:36.087Z,962.25
2016-05-09T04:59:36.090Z,962.28
2016-05-09T05:00:36.092Z,962.26
2016-05-09T05:01:36.096Z,962.29
2016-05-09T05:02:36.098Z,962.28
2016-05-09T05:03:36.101Z,962.26
2016-05-09T05:04:36.103Z,962.28
2016-05-09T05:05:36.106Z,962.26
2016-05-09T05:06:36.109Z,962.3
2016-05-09T05:07:36.112Z,962.28
2016-05-09T05:08:36.114Z,962.23
2016-05-09T05:09:36.117Z,962.26
2016-05-09T05:10:36.120Z,962.23
2016-05-09T05:11:36.122Z,962.27
2016-05-09T05:12:36.125Z,962.27
2016-05-09T05:13:36.128Z,962.27
2016-05-09T05:14:36.130Z,962.28
2016-05-09T05:15:36.148Z,962.29
2016-05-09T05:16:36.135Z,962.29
2016-05-09T05:17:36.154Z,962.28
2016-05-09T05:18:36.141Z,962.33
2016-05-09T05:19:36.159Z,962.35
2016-05-09T05:20:36.161Z,962.31
2016-05-09T05:21:36.164Z,962.33
2016-05-09T05:22:36.166Z,962.3
2016-05-09T05:23:36.170Z,962.3
2016-05-09T05:24:36.173Z,962.28
2016-05-09T05:25:36.175Z,962.27
2016-05-09T05:26:36.177Z,962.29
2016-05-09T05:27:36.180Z,962.28
2016-05-09T05:28:36.183Z,962.27
2016-05-09T05:29:36.202Z,962.28
2016-05-09T05:30:36.205Z,962.27
2016-05-09T05:31:36.207Z,962.32
2016-05-09T05:32:36.209Z,962.32
2016-05-09T05:33:36.212Z,962.31
2016-05-09T05:34:36.215Z,962.32
2016-05-09T05:35:36.218Z,962.38
2016-05-09T05:36:36.236Z,962.37
2016-05-09T05:37:36.238Z,962.4
2016-05-09T05:38:36.241Z,962.41
2016-05-09T05:39:36.259Z,962.41
2016-05-09T05:40:36.246Z,962.42
2016-05-09T05:41:36.249Z,962.42
2016-05-09T05:42:36.252Z,962.46
2016-05-09T05:43:36.254Z,962.45
2016-05-09T05:44:36.273Z,962.48
2016-05-09T05:45:36.276Z,962.54
2016-05-09T05:46:36.279Z,962.51
2016-05-09T05:47:36.281Z,962.56
2016-05-09T05:48:36.284Z,962.54
2016-05-09T05:49:36.286Z,962.54
2016-05-09T05:50:36.305Z,962.57
2016-05-09T05:51:36.291Z,962.56
2016-05-09T05:52:36.310Z,962.57
2016-05-09T05:53:36.314Z,962.57
2016-05-09T05:54:36.316Z,962.63
2016-05-09T05:55:36.319Z,962.61
2016-05-09T05:56:36.321Z,962.56
2016-05-09T05:57:36.324Z,962.59
2016-05-09T05:58:36.326Z,962.56
2016-05-09T05:59:36.344Z,962.6
2016-05-09T06:00:36.390Z,962.58
2016-05-09T06:01:36.453Z,962.61
2016-05-09T06:02:36.483Z,962.64
2016-05-09T06:03:36.530Z,962.63
2016-05-09T06:04:36.593Z,962.63
2016-05-09T06:05:36.595Z,962.67
2016-05-09T06:06:36.630Z,962.67
2016-05-09T06:07:36.647Z,962.67
2016-05-09T06:08:36.666Z,962.69
2016-05-09T06:09:36.685Z,962.68
2016-05-09T06:10:36.693Z,962.72
2016-05-09T06:11:36.701Z,962.71
2016-05-09T06:12:36.710Z,962.72
2016-05-09T06:13:36.724Z,962.73
2016-05-09T06:14:36.732Z,962.71
2016-05-09T06:15:36.737Z,962.71
2016-05-09T06:16:36.741Z,962.7
2016-05-09T06:17:36.761Z,962.74
2016-05-09T06:18:36.766Z,962.73
2016-05-09T06:19:36.770Z,962.71
2016-05-09T06:20:36.773Z,962.7
2016-05-09T06:21:36.777Z,962.73
2016-05-09T06:22:36.780Z,962.71
2016-05-09T06:23:36.783Z,962.71
2016-05-09T06:24:36.787Z,962.71
2016-05-09T06:25:36.806Z,962.75
2016-05-09T06:26:36.809Z,962.75
2016-05-09T06:27:36.812Z,962.76
2016-05-09T06:28:36.814Z,962.75
2016-05-09T06:29:36.817Z,962.77
2016-05-09T06:30:36.820Z,962.79
2016-05-09T06:31:36.822Z,962.79
2016-05-09T06:32:36.824Z,962.81
2016-05-09T06:33:36.827Z,962.81
2016-05-09T06:34:36.830Z,962.84
2016-05-09T06:35:36.833Z,962.8
2016-05-09T06:36:36.836Z,962.86
2016-05-09T06:37:36.838Z,962.88
2016-05-09T06:38:36.857Z,962.89
2016-05-09T06:39:36.860Z,962.85
2016-05-09T06:40:36.862Z,962.91
2016-05-09T06:41:36.865Z,962.95
2016-05-09T06:42:36.868Z,962.97
2016-05-09T06:43:36.870Z,962.97
2016-05-09T06:44:36.874Z,962.94
2016-05-09T06:45:36.891Z,962.94
2016-05-09T06:46:36.894Z,962.94
2016-05-09T06:47:36.896Z,962.93
2016-05-09T06:48:36.899Z,962.93
2016-05-09T06:49:36.902Z,962.92
2016-05-09T06:50:36.920Z,962.92
2016-05-09T06:51:36.923Z,962.95
2016-05-09T06:52:36.925Z,962.96
2016-05-09T06:53:36.928Z,962.96
2016-05-09T06:54:36.947Z,962.99
2016-05-09T06:55:36.934Z,962.97
2016-05-09T06:56:36.937Z,963.01
2016-05-09T06:57:36.955Z,963.03
2016-05-09T06:58:36.958Z,963.05
2016-05-09T06:59:36.961Z,963.04
2016-05-09T07:00:36.963Z,963.07
2016-05-09T07:01:36.966Z,963.08
2016-05-09T07:02:36.983Z,963.12
2016-05-09T07:03:36.986Z,963.18
2016-05-09T07:04:36.989Z,963.15
2016-05-09T07:05:36.991Z,963.15
2016-05-09T07:06:36.995Z,963.2
2016-05-09T07:07:37.060Z,963.19
2016-05-09T07:08:37.016Z,963.19
2016-05-09T07:09:37.018Z,963.18
2016-05-09T07:10:37.021Z,963.19
2016-05-09T07:11:37.039Z,963.16
2016-05-09T07:12:37.042Z,963.21
2016-05-09T07:13:37.045Z,963.17
2016-05-09T07:14:37.047Z,963.17
2016-05-09T07:15:37.050Z,963.17
2016-05-09T07:16:37.068Z,963.14
2016-05-09T07:17:37.055Z,963.13
2016-05-09T07:18:37.074Z,963.15
2016-05-09T07:19:37.076Z,963.11
2016-05-09T07:20:37.079Z,963.17
2016-05-09T07:21:37.082Z,963.18
2016-05-09T07:22:37.084Z,963.15
2016-05-09T07:23:37.103Z,963.21
2016-05-09T07:24:37.106Z,963.21
2016-05-09T07:25:37.109Z,963.19
2016-05-09T07:26:37.126Z,963.16
2016-05-09T07:27:37.114Z,963.16
2016-05-09T07:28:37.132Z,963.21
2016-05-09T07:29:37.135Z,963.19
2016-05-09T07:30:37.137Z,963.19
2016-05-09T07:31:37.155Z,963.16
2016-05-09T07:32:37.159Z,963.19
2016-05-09T07:33:37.161Z,963.2
2016-05-09T07:34:37.164Z,963.18
2016-05-09T07:35:37.167Z,963.19
2016-05-09T07:36:37.169Z,963.19
2016-05-09T07:37:37.188Z,963.19
2016-05-09T07:38:37.191Z,963.21
2016-05-09T07:39:37.193Z,963.19
2016-05-09T07:40:37.211Z,963.22
2016-05-09T07:41:37.214Z,963.21
2016-05-09T07:42:37.216Z,963.21
2016-05-09T07:43:37.219Z,963.23
2016-05-09T07:44:37.222Z,963.23
2016-05-09T07:45:37.224Z,963.21
2016-05-09T07:46:37.243Z,963.19
2016-05-09T07:47:37.246Z,963.22
2016-05-09T07:48:37.248Z,963.2
2016-05-09T07:49:37.252Z,963.21
2016-05-09T07:50:37.269Z,963.15
2016-05-09T07:51:37.262Z,963.16
2016-05-09T07:52:37.280Z,963.18
2016-05-09T07:53:37.282Z,963.19
2016-05-09T07:54:37.303Z,963.2
2016-05-09T07:55:37.297Z,963.21
2016-05-09T07:56:37.300Z,963.21
2016-05-09T07:57:37.302Z,963.23
2016-05-09T07:58:37.306Z,963.26
2016-05-09T07:59:37.308Z,963.24
2016-05-09T08:00:37.326Z,963.31
2016-05-09T08:01:37.329Z,963.38
2016-05-09T08:02:37.332Z,963.41
2016-05-09T08:03:37.334Z,963.44
2016-05-09T08:04:37.352Z,963.38
2016-05-09T08:05:43.980Z,963.37
2016-05-09T08:06:38.061Z,963.28
2016-05-09T08:07:38.798Z,963.34
2016-05-09T08:08:37.473Z,963.22
2016-05-09T08:09:38.351Z,963.26
2016-05-09T08:10:37.385Z,963.28
2016-05-09T08:11:38.075Z,963.4
2016-05-09T08:12:37.406Z,963.38
2016-05-09T08:13:37.408Z,963.3
2016-05-09T08:14:37.411Z,963.4
2016-05-09T08:15:37.429Z,963.17
2016-05-09T08:16:37.432Z,963.31
2016-05-09T08:17:37.435Z,963.28
2016-05-09T08:18:37.453Z,963.13
2016-05-09T08:19:37.455Z,963.11
2016-05-09T08:20:37.459Z,963.12
2016-05-09T08:21:37.461Z,963.12
2016-05-09T08:22:37.479Z,963.08
2016-05-09T08:23:37.483Z,963.12
2016-05-09T08:24:37.486Z,963.09
2016-05-09T08:25:37.488Z,963.11
2016-05-09T08:26:37.506Z,963.11
2016-05-09T08:27:37.508Z,963.15
2016-05-09T08:28:37.511Z,963.09
2016-05-09T08:29:37.530Z,963.1
2016-05-09T08:30:37.532Z,963.13
2016-05-09T08:31:37.535Z,963.14
2016-05-09T08:32:37.538Z,963.14
2016-05-09T08:33:37.555Z,963.09
2016-05-09T08:34:37.558Z,963.07
2016-05-09T08:35:37.561Z,963.07
2016-05-09T08:36:37.564Z,963.09
2016-05-09T08:37:37.582Z,963.06
2016-05-09T08:38:37.584Z,963.05
2016-05-09T08:39:37.587Z,963.03
2016-05-09T08:40:37.591Z,963.08
2016-05-09T08:41:37.609Z,963.07
2016-05-09T08:42:37.612Z,963.01
2016-05-09T08:43:37.614Z,962.99
2016-05-09T08:44:37.632Z,962.99
2016-05-09T08:45:37.635Z,962.99
2016-05-09T08:46:37.637Z,962.96
2016-05-09T08:47:37.640Z,962.95
2016-05-09T08:48:37.643Z,962.95
2016-05-09T08:49:37.661Z,962.93
2016-05-09T08:50:37.664Z,962.92
2016-05-09T08:51:37.667Z,962.9
2016-05-09T08:52:37.670Z,962.94
2016-05-09T08:53:37.688Z,962.93
2016-05-09T08:54:37.691Z,962.93
2016-05-09T08:55:37.709Z,962.89
2016-05-09T08:56:37.711Z,962.92
2016-05-09T08:57:37.714Z,962.94
2016-05-09T08:58:37.717Z,962.94
2016-05-09T08:59:37.719Z,962.92
2016-05-09T09:00:37.738Z,962.89
2016-05-09T09:01:37.741Z,962.93
2016-05-09T09:02:37.743Z,962.92
2016-05-09T09:03:37.746Z,962.93
2016-05-09T09:04:37.764Z,962.95
2016-05-09T09:05:37.766Z,962.96
2016-05-09T09:06:37.769Z,962.94
2016-05-09T09:07:37.787Z,962.93
2016-05-09T09:08:37.791Z,962.94
2016-05-09T09:09:37.793Z,962.96
2016-05-09T09:10:37.811Z,962.9
2016-05-09T09:11:37.814Z,962.92
2016-05-09T09:12:37.818Z,962.92
2016-05-09T09:13:37.820Z,962.82
2016-05-09T09:14:37.823Z,962.86
2016-05-09T09:15:37.841Z,962.84
2016-05-09T09:16:37.843Z,962.85
2016-05-09T09:17:37.846Z,962.89
2016-05-09T09:18:37.849Z,962.86
2016-05-09T09:19:37.867Z,962.84
2016-05-09T09:20:37.870Z,962.85
2016-05-09T09:21:37.872Z,962.84
2016-05-09T09:22:37.891Z,962.83
2016-05-09T09:23:37.894Z,962.81
2016-05-09T09:24:37.897Z,962.79
2016-05-09T09:25:37.899Z,962.79
2016-05-09T09:26:37.902Z,962.78
2016-05-09T09:27:37.905Z,962.76
2016-05-09T09:28:37.922Z,962.74
2016-05-09T09:29:37.925Z,962.78
2016-05-09T09:30:37.927Z,962.76
2016-05-09T09:31:37.931Z,962.75
2016-05-09T09:32:37.949Z,962.72
2016-05-09T09:33:37.952Z,962.73
2016-05-09T09:34:37.955Z,962.72
2016-05-09T09:35:37.957Z,962.73
2016-05-09T09:36:37.975Z,962.73
2016-05-09T09:37:37.978Z,962.76
2016-05-09T09:38:37.980Z,962.76
2016-05-09T09:39:37.983Z,962.73
2016-05-09T09:40:37.986Z,962.72
2016-05-09T09:41:38.004Z,962.7
2016-05-09T09:42:38.007Z,962.71
2016-05-09T09:43:38.009Z,962.68
2016-05-09T09:44:38.013Z,962.67
2016-05-09T09:45:38.015Z,962.67
2016-05-09T09:46:38.033Z,962.66
2016-05-09T09:47:38.037Z,962.65
2016-05-09T09:48:38.039Z,962.68
2016-05-09T09:49:38.042Z,962.64
2016-05-09T09:50:38.059Z,962.64
2016-05-09T09:51:38.062Z,962.66
2016-05-09T09:52:38.065Z,962.68
2016-05-09T09:53:38.068Z,962.64
2016-05-09T09:54:38.071Z,962.7
2016-05-09T09:55:38.073Z,962.67
2016-05-09T09:56:38.092Z,962.66
2016-05-09T09:57:38.094Z,962.68
2016-05-09T09:58:38.097Z,962.71
2016-05-09T09:59:38.099Z,962.67
2016-05-09T10:00:38.102Z,962.69
2016-05-09T10:01:38.122Z,962.68
2016-05-09T10:02:38.124Z,962.66
2016-05-09T10:03:38.127Z,962.63
2016-05-09T10:04:38.130Z,962.67
2016-05-09T10:05:38.147Z,962.68
2016-05-09T10:06:38.134Z,962.67
2016-05-09T10:07:38.152Z,962.7
2016-05-09T10:08:38.155Z,962.69
2016-05-09T10:09:38.157Z,962.72
2016-05-09T10:10:38.176Z,962.68
2016-05-09T10:11:38.179Z,962.71
2016-05-09T10:12:38.182Z,962.71
2016-05-09T10:13:38.200Z,962.69
2016-05-09T10:14:38.187Z,962.75
2016-05-09T10:15:38.205Z,962.73
2016-05-09T10:16:38.208Z,962.72
2016-05-09T10:17:38.210Z,962.73
2016-05-09T10:18:38.213Z,962.67
2016-05-09T10:19:38.216Z,962.71
2016-05-09T10:20:38.216Z,962.71
2016-05-09T10:21:38.234Z,962.7
2016-05-09T10:22:38.237Z,962.65
2016-05-09T10:23:38.240Z,962.72
2016-05-09T10:24:38.242Z,962.69
2016-05-09T10:25:38.245Z,962.7
2016-05-09T10:26:38.248Z,962.71
2016-05-09T10:27:38.266Z,962.71
2016-05-09T10:28:38.269Z,962.74
2016-05-09T10:29:38.272Z,962.7
2016-05-09T10:30:38.275Z,962.72
2016-05-09T10:31:38.277Z,962.72
2016-05-09T10:32:38.295Z,962.73
2016-05-09T10:33:38.297Z,962.73
2016-05-09T10:34:38.301Z,962.74
2016-05-09T10:35:38.303Z,962.75
2016-05-09T10:36:38.306Z,962.8
2016-05-09T10:37:38.324Z,962.75
2016-05-09T10:38:38.327Z,962.76
2016-05-09T10:39:38.329Z,962.78
2016-05-09T10:40:38.332Z,962.73
2016-05-09T10:41:38.335Z,962.77
2016-05-09T10:42:38.338Z,962.74
2016-05-09T10:43:38.357Z,962.75
2016-05-09T10:44:38.359Z,962.77
2016-05-09T10:45:38.362Z,962.75
2016-05-09T10:46:38.364Z,962.77
2016-05-09T10:47:38.367Z,962.76
2016-05-09T10:48:38.385Z,962.78
2016-05-09T10:49:38.388Z,962.8
2016-05-09T10:50:38.390Z,962.78
2016-05-09T10:51:38.393Z,962.8
2016-05-09T10:52:38.395Z,962.82
2016-05-09T10:53:38.414Z,962.82
2016-05-09T10:54:38.417Z,962.82
2016-05-09T10:55:38.420Z,962.81
2016-05-09T10:56:38.423Z,962.83
2016-05-09T10:57:38.440Z,962.81
2016-05-09T10:58:38.443Z,962.81
2016-05-09T10:59:38.445Z,962.79
2016-05-09T11:00:38.448Z,962.81
2016-05-09T11:01:38.451Z,962.82
2016-05-09T11:02:38.453Z,962.81
2016-05-09T11:03:38.456Z,962.79
2016-05-09T11:04:38.475Z,962.81
2016-05-09T11:05:38.477Z,962.82
2016-05-09T11:06:38.480Z,962.81
2016-05-09T11:07:38.483Z,962.8
2016-05-09T11:08:38.486Z,962.8
2016-05-09T11:09:38.504Z,962.81
2016-05-09T11:10:38.507Z,962.81
2016-05-09T11:11:38.509Z,962.79
2016-05-09T11:12:38.512Z,962.82
2016-05-09T11:13:38.516Z,962.83
2016-05-09T11:14:38.690Z,962.8
2016-05-09T11:15:38.536Z,962.83
2016-05-09T11:16:38.538Z,962.85
2016-05-09T11:17:38.540Z,962.82
2016-05-09T11:18:38.543Z,962.84
2016-05-09T11:19:38.546Z,962.81
2016-05-09T11:20:38.549Z,962.8
2016-05-09T11:21:38.551Z,962.82
2016-05-09T11:22:38.570Z,962.8
2016-05-09T11:23:38.573Z,962.79
2016-05-09T11:24:38.576Z,962.84
2016-05-09T11:25:38.579Z,962.84
2016-05-09T11:26:38.581Z,962.81
2016-05-09T11:27:38.600Z,962.86
2016-05-09T11:28:38.603Z,962.85
2016-05-09T11:29:38.605Z,962.86
2016-05-09T11:30:38.607Z,962.85
2016-05-09T11:31:38.626Z,962.86
2016-05-09T11:32:38.628Z,962.85
2016-05-09T11:33:38.631Z,962.84
2016-05-09T11:34:38.633Z,962.85
2016-05-09T11:35:38.636Z,962.84
2016-05-09T11:36:38.639Z,962.85
2016-05-09T11:37:38.658Z,962.87
2016-05-09T11:38:38.661Z,962.86
2016-05-09T11:39:38.663Z,962.81
2016-05-09T11:40:38.666Z,962.84
2016-05-09T11:41:38.669Z,962.82
2016-05-09T11:42:38.671Z,962.89
2016-05-09T11:43:38.674Z,962.87
2016-05-09T11:44:38.692Z,962.88
2016-05-09T11:45:38.694Z,962.87
2016-05-09T11:46:38.697Z,962.9
2016-05-09T11:47:38.699Z,962.92
2016-05-09T11:48:38.703Z,962.93
2016-05-09T11:49:38.721Z,962.92
2016-05-09T11:50:38.723Z,962.9
2016-05-09T11:51:38.726Z,962.92
2016-05-09T11:52:38.729Z,962.91
2016-05-09T11:53:38.732Z,962.93
2016-05-09T11:54:38.735Z,962.98
2016-05-09T11:55:38.753Z,962.94
2016-05-09T11:56:38.755Z,962.97
2016-05-09T11:57:38.758Z,962.94
2016-05-09T11:58:38.762Z,962.95
2016-05-09T11:59:38.764Z,962.93
2016-05-09T12:00:38.766Z,962.89
2016-05-09T12:01:38.769Z,962.93
2016-05-09T12:02:38.787Z,962.89
2016-05-09T12:03:38.790Z,962.87
2016-05-09T12:04:38.793Z,962.86
2016-05-09T12:05:38.795Z,962.81
2016-05-09T12:06:38.813Z,962.84
2016-05-09T12:07:38.816Z,962.81
2016-05-09T12:08:38.820Z,962.84
2016-05-09T12:09:38.822Z,962.81
2016-05-09T12:10:38.840Z,962.84
2016-05-09T12:11:38.827Z,962.85
2016-05-09T12:12:38.845Z,962.85
2016-05-09T12:13:38.849Z,962.86
2016-05-09T12:14:38.851Z,962.87
2016-05-09T12:15:38.869Z,962.89
2016-05-09T12:16:38.856Z,962.9
2016-05-09T12:17:38.859Z,962.9
2016-05-09T12:18:38.877Z,962.88
2016-05-09T12:19:38.880Z,962.95
2016-05-09T12:20:38.882Z,962.88
2016-05-09T12:21:38.885Z,962.86
2016-05-09T12:22:38.888Z,962.87
2016-05-09T12:23:38.891Z,962.93
2016-05-09T12:24:38.893Z,962.9
2016-05-09T12:25:38.911Z,962.87
2016-05-09T12:26:38.914Z,962.87
2016-05-09T12:27:38.917Z,962.85
2016-05-09T12:28:38.920Z,962.87
2016-05-09T12:29:39.298Z,962.85
2016-05-09T12:30:38.925Z,962.86